sensor_id;sensor_type;location;lat;lon;timestamp;pressure;altitude;pressure_sealevel;temperature;humidity
46876;BME280;32866;50.160;14.768;2023-02-19T00:01:27;99362.91;;;7.91;100.00
46876;BME280;32866;50.160;14.768;2023-02-19T00:03:58;99364.31;;;7.99;100.00
46876;BME280;32866;50.160;14.768;2023-02-19T00:06:25;99360.06;;;7.98;100.00
46876;BME280;32866;50.160;14.768;2023-02-19T00:08:52;99351.25;;;7.90;100.00
46876;BME280;32866;50.160;14.768;2023-02-19T00:11:19;99355.19;;;7.89;100.00
46876;BME280;32866;50.160;14.768;2023-02-19T00:13:47;99325.28;;;7.62;100.00
46876;BME280;32866;50.160;14.768;2023-02-19T00:16:29;99349.28;;;7.91;100.00
46876;BME280;32866;50.160;14.768;2023-02-19T00:18:56;99354.03;;;7.87;100.00
46876;BME280;32866;50.160;14.768;2023-02-19T00:21:23;99349.28;;;7.91;100.00
46876;BME280;32866;50.160;14.768;2023-02-19T00:23:57;99304.88;;;7.70;100.00
46876;BME280;32866;50.160;14.768;2023-02-19T00:26:23;99350.81;;;7.92;100.00
46876;BME280;32866;50.160;14.768;2023-02-19T00:28:50;99346.53;;;7.91;100.00
46876;BME280;32866;50.160;14.768;2023-02-19T00:31:17;99346.53;;;7.91;100.00
46876;BME280;32866;50.160;14.768;2023-02-19T00:33:43;99343.56;;;7.85;100.00
46876;BME280;32866;50.160;14.768;2023-02-19T00:36:09;99351.09;;;7.97;100.00
46876;BME280;32866;50.160;14.768;2023-02-19T00:38:38;99344.03;;;7.80;100.00
46876;BME280;32866;50.160;14.768;2023-02-19T00:41:04;99352.16;;;7.84;100.00
46876;BME280;32866;50.160;14.768;2023-02-19T00:43:51;99349.44;;;7.84;100.00
46876;BME280;32866;50.160;14.768;2023-02-19T00:46:22;99314.88;;;7.57;100.00
46876;BME280;32866;50.160;14.768;2023-02-19T00:48:47;99339.84;;;7.75;100.00
46876;BME280;32866;50.160;14.768;2023-02-19T00:51:13;99303.28;;;7.53;100.00
46876;BME280;32866;50.160;14.768;2023-02-19T00:53:39;99330.41;;;7.60;100.00
46876;BME280;32866;50.160;14.768;2023-02-19T00:56:05;99318.44;;;7.54;100.00
46876;BME280;32866;50.160;14.768;2023-02-19T00:58:49;99345.63;;;7.77;100.00
46876;BME280;32866;50.160;14.768;2023-02-19T01:01:15;99342.56;;;7.75;100.00
46876;BME280;32866;50.160;14.768;2023-02-19T01:03:40;99339.72;;;7.83;100.00
46876;BME280;32866;50.160;14.768;2023-02-19T01:06:08;99339.72;;;7.83;100.00
46876;BME280;32866;50.160;14.768;2023-02-19T01:08:34;99318.81;;;7.56;100.00
46876;BME280;32866;50.160;14.768;2023-02-19T01:11:01;99341.66;;;7.82;100.00
46876;BME280;32866;50.160;14.768;2023-02-19T01:13:27;99334.72;;;7.77;100.00
46876;BME280;32866;50.160;14.768;2023-02-19T01:15:53;99328.25;;;7.71;100.00
46876;BME280;32866;50.160;14.768;2023-02-19T01:18:18;99327.94;;;7.66;100.00
46876;BME280;32866;50.160;14.768;2023-02-19T01:20:44;99311.31;;;7.60;100.00
46876;BME280;32866;50.160;14.768;2023-02-19T01:23:11;99331.47;;;7.66;100.00
46876;BME280;32866;50.160;14.768;2023-02-19T01:25:38;99328.59;;;7.73;100.00
46876;BME280;32866;50.160;14.768;2023-02-19T01:28:03;99322.44;;;7.69;100.00
46876;BME280;32866;50.160;14.768;2023-02-19T01:30:29;99292.63;;;7.58;100.00
46876;BME280;32866;50.160;14.768;2023-02-19T01:32:54;99325.28;;;7.82;100.00
46876;BME280;32866;50.160;14.768;2023-02-19T01:35:20;99310.06;;;7.85;100.00
46876;BME280;32866;50.160;14.768;2023-02-19T01:37:45;99281.22;;;7.64;100.00
46876;BME280;32866;50.160;14.768;2023-02-19T01:40:10;99290.16;;;7.84;100.00
46876;BME280;32866;50.160;14.768;2023-02-19T01:42:36;99287.31;;;7.71;100.00
46876;BME280;32866;50.160;14.768;2023-02-19T01:48:03;99276.91;;;7.86;100.00
46876;BME280;32866;50.160;14.768;2023-02-19T01:50:38;99271.66;;;7.75;100.00
46876;BME280;32866;50.160;14.768;2023-02-19T01:53:07;99278.41;;;7.87;100.00
46876;BME280;32866;50.160;14.768;2023-02-19T01:55:33;99229.00;;;7.65;100.00
46876;BME280;32866;50.160;14.768;2023-02-19T01:58:01;99218.09;;;7.65;100.00
46876;BME280;32866;50.160;14.768;2023-02-19T02:00:27;99253.28;;;7.96;100.00
46876;BME280;32866;50.160;14.768;2023-02-19T02:02:55;99260.28;;;7.97;100.00
46876;BME280;32866;50.160;14.768;2023-02-19T02:05:56;99255.66;;;7.94;100.00
46876;BME280;32866;50.160;14.768;2023-02-19T02:08:24;99248.03;;;8.05;100.00
46876;BME280;32866;50.160;14.768;2023-02-19T02:11:08;99250.75;;;8.05;100.00
46876;BME280;32866;50.160;14.768;2023-02-19T02:13:35;99238.56;;;8.10;100.00
46876;BME280;32866;50.160;14.768;2023-02-19T02:32:30;99229.84;;;7.98;100.00
46876;BME280;32866;50.160;14.768;2023-02-19T02:35:06;99217.13;;;7.92;100.00
46876;BME280;32866;50.160;14.768;2023-02-19T02:37:34;99211.34;;;7.90;100.00
46876;BME280;32866;50.160;14.768;2023-02-19T02:40:05;99167.13;;;7.62;100.00
46876;BME280;32866;50.160;14.768;2023-02-19T02:42:33;99162.00;;;7.64;100.00
46876;BME280;32866;50.160;14.768;2023-02-19T02:56:21;99185.91;;;7.76;100.00
46876;BME280;32866;50.160;14.768;2023-02-19T02:58:48;99179.59;;;7.79;100.00
46876;BME280;32866;50.160;14.768;2023-02-19T03:01:21;99175.00;;;7.76;100.00
46876;BME280;32866;50.160;14.768;2023-02-19T03:08:13;99162.13;;;7.77;100.00
46876;BME280;32866;50.160;14.768;2023-02-19T03:10:59;99171.44;;;7.79;100.00
46876;BME280;32866;50.160;14.768;2023-02-19T03:13:56;99183.44;;;7.82;100.00
46876;BME280;32866;50.160;14.768;2023-02-19T03:16:43;99174.06;;;7.83;100.00
46876;BME280;32866;50.160;14.768;2023-02-19T03:19:29;99149.19;;;7.81;100.00
46876;BME280;32866;50.160;14.768;2023-02-19T03:22:03;99145.16;;;7.86;100.00
46876;BME280;32866;50.160;14.768;2023-02-19T03:24:37;99104.72;;;7.48;100.00
46876;BME280;32866;50.160;14.768;2023-02-19T03:27:26;99136.47;;;7.74;100.00
46876;BME280;32866;50.160;14.768;2023-02-19T03:29:53;99137.66;;;7.73;100.00
46876;BME280;32866;50.160;14.768;2023-02-19T03:32:31;99120.34;;;7.64;100.00
46876;BME280;32866;50.160;14.768;2023-02-19T03:35:22;99125.91;;;7.76;100.00
46876;BME280;32866;50.160;14.768;2023-02-19T03:37:55;99126.41;;;7.71;100.00
46876;BME280;32866;50.160;14.768;2023-02-19T03:40:27;99129.03;;;7.75;100.00
46876;BME280;32866;50.160;14.768;2023-02-19T03:45:32;99120.44;;;7.76;100.00
46876;BME280;32866;50.160;14.768;2023-02-19T03:48:22;99122.22;;;7.83;100.00
46876;BME280;32866;50.160;14.768;2023-02-19T03:53:30;99111.75;;;7.82;100.00
46876;BME280;32866;50.160;14.768;2023-02-19T03:58:37;99085.47;;;7.55;100.00
46876;BME280;32866;50.160;14.768;2023-02-19T04:01:08;99105.59;;;7.77;100.00
46876;BME280;32866;50.160;14.768;2023-02-19T04:03:40;99064.84;;;7.37;100.00
46876;BME280;32866;50.160;14.768;2023-02-19T04:06:13;99103.38;;;7.72;100.00
46876;BME280;32866;50.160;14.768;2023-02-19T04:08:44;99098.94;;;7.62;100.00
46876;BME280;32866;50.160;14.768;2023-02-19T04:11:10;99113.94;;;7.70;100.00
46876;BME280;32866;50.160;14.768;2023-02-19T04:13:41;99106.03;;;7.59;100.00
46876;BME280;32866;50.160;14.768;2023-02-19T04:16:10;99105.88;;;7.83;100.00
46876;BME280;32866;50.160;14.768;2023-02-19T04:18:40;99102.28;;;7.86;100.00
46876;BME280;32866;50.160;14.768;2023-02-19T04:21:05;99099.47;;;7.90;100.00
46876;BME280;32866;50.160;14.768;2023-02-19T04:23:37;99103.28;;;7.92;100.00
46876;BME280;32866;50.160;14.768;2023-02-19T04:26:04;99097.25;;;8.01;100.00
46876;BME280;32866;50.160;14.768;2023-02-19T04:28:32;99107.81;;;7.99;100.00
46876;BME280;32866;50.160;14.768;2023-02-19T04:30:58;99089.75;;;8.05;100.00
46876;BME280;32866;50.160;14.768;2023-02-19T04:33:23;99063.91;;;7.77;100.00
46876;BME280;32866;50.160;14.768;2023-02-19T04:35:48;99101.19;;;8.00;100.00
46876;BME280;32866;50.160;14.768;2023-02-19T04:38:14;99070.50;;;7.79;100.00
46876;BME280;32866;50.160;14.768;2023-02-19T04:40:40;99083.94;;;8.03;100.00
46876;BME280;32866;50.160;14.768;2023-02-19T04:43:05;99095.53;;;8.07;100.00
46876;BME280;32866;50.160;14.768;2023-02-19T04:45:30;99091.72;;;8.05;100.00
46876;BME280;32866;50.160;14.768;2023-02-19T04:47:59;99082.16;;;7.96;100.00
46876;BME280;32866;50.160;14.768;2023-02-19T04:50:24;99090.06;;;8.07;100.00
46876;BME280;32866;50.160;14.768;2023-02-19T04:52:50;99081.22;;;8.03;100.00
46876;BME280;32866;50.160;14.768;2023-02-19T04:55:16;99085.47;;;8.04;100.00
46876;BME280;32866;50.160;14.768;2023-02-19T04:57:41;99074.41;;;8.11;100.00
46876;BME280;32866;50.160;14.768;2023-02-19T05:00:07;99073.59;;;8.11;100.00
46876;BME280;32866;50.160;14.768;2023-02-19T05:02:33;99050.69;;;7.92;100.00
46876;BME280;32866;50.160;14.768;2023-02-19T05:04:58;99067.06;;;8.08;100.00
46876;BME280;32866;50.160;14.768;2023-02-19T05:07:24;99060.38;;;8.09;100.00
46876;BME280;32866;50.160;14.768;2023-02-19T05:09:49;99056.56;;;8.07;100.00
46876;BME280;32866;50.160;14.768;2023-02-19T05:12:14;99036.22;;;7.95;100.00
46876;BME280;32866;50.160;14.768;2023-02-19T05:14:40;99059.53;;;8.12;100.00
46876;BME280;32866;50.160;14.768;2023-02-19T05:17:05;99018.91;;;7.85;100.00
46876;BME280;32866;50.160;14.768;2023-02-19T05:19:30;99028.97;;;7.88;100.00
46876;BME280;32866;50.160;14.768;2023-02-19T05:21:56;99051.88;;;8.07;100.00
46876;BME280;32866;50.160;14.768;2023-02-19T05:24:21;99041.22;;;8.13;100.00
46876;BME280;32866;50.160;14.768;2023-02-19T05:26:49;99025.72;;;7.93;100.00
46876;BME280;32866;50.160;14.768;2023-02-19T05:29:14;99054.06;;;8.12;100.00
46876;BME280;32866;50.160;14.768;2023-02-19T05:31:40;99050.25;;;8.10;100.00
46876;BME280;32866;50.160;14.768;2023-02-19T05:34:05;99032.97;;;8.00;100.00
46876;BME280;32866;50.160;14.768;2023-02-19T05:36:31;99025.28;;;7.95;100.00
46876;BME280;32866;50.160;14.768;2023-02-19T05:38:57;99051.34;;;8.12;100.00
46876;BME280;32866;50.160;14.768;2023-02-19T05:41:29;99018.16;;;7.85;100.00
46876;BME280;32866;50.160;14.768;2023-02-19T05:43:56;99044.19;;;8.18;100.00
46876;BME280;32866;50.160;14.768;2023-02-19T05:46:24;99035.56;;;8.20;100.00
46876;BME280;32866;50.160;14.768;2023-02-19T05:48:51;99031.03;;;8.30;100.00
46876;BME280;32866;50.160;14.768;2023-02-19T05:51:18;99055.16;;;8.31;100.00
46876;BME280;32866;50.160;14.768;2023-02-19T05:53:45;99036.28;;;8.37;100.00
46876;BME280;32866;50.160;14.768;2023-02-19T05:56:30;99029.28;;;8.36;100.00
46876;BME280;32866;50.160;14.768;2023-02-19T05:58:56;99034.09;;;8.32;100.00
46876;BME280;32866;50.160;14.768;2023-02-19T06:01:24;99034.31;;;8.38;100.00
46876;BME280;32866;50.160;14.768;2023-02-19T06:03:50;99011.72;;;8.08;100.00
46876;BME280;32866;50.160;14.768;2023-02-19T06:06:19;99010.91;;;8.24;100.00
46876;BME280;32866;50.160;14.768;2023-02-19T06:08:47;99043.03;;;8.32;100.00
46876;BME280;32866;50.160;14.768;2023-02-19T06:11:12;99020.38;;;8.19;100.00
46876;BME280;32866;50.160;14.768;2023-02-19T06:13:38;99006.50;;;8.13;100.00
46876;BME280;32866;50.160;14.768;2023-02-19T06:16:04;99026.41;;;8.43;100.00
46876;BME280;32866;50.160;14.768;2023-02-19T06:18:29;99037.13;;;8.50;100.00
46876;BME280;32866;50.160;14.768;2023-02-19T06:21:03;99034.41;;;8.50;100.00
46876;BME280;32866;50.160;14.768;2023-02-19T06:23:29;99035.25;;;8.47;100.00
46876;BME280;32866;50.160;14.768;2023-02-19T06:25:54;99006.16;;;8.41;100.00
46876;BME280;32866;50.160;14.768;2023-02-19T06:28:28;98977.19;;;8.30;100.00
46876;BME280;32866;50.160;14.768;2023-02-19T06:30:53;99018.16;;;8.60;100.00
46876;BME280;32866;50.160;14.768;2023-02-19T06:33:19;99015.50;;;8.56;100.00
46876;BME280;32866;50.160;14.768;2023-02-19T06:35:44;99016.31;;;8.69;100.00
46876;BME280;32866;50.160;14.768;2023-02-19T06:38:09;98984.38;;;8.53;100.00
46876;BME280;32866;50.160;14.768;2023-02-19T06:40:35;99004.84;;;8.62;100.00
46876;BME280;32866;50.160;14.768;2023-02-19T06:43:00;98977.94;;;8.60;100.00
46876;BME280;32866;50.160;14.768;2023-02-19T06:45:25;98996.63;;;8.62;100.00
46876;BME280;32866;50.160;14.768;2023-02-19T06:47:51;99014.06;;;8.94;100.00
46876;BME280;32866;50.160;14.768;2023-02-19T06:50:16;99010.34;;;8.87;100.00
46876;BME280;32866;50.160;14.768;2023-02-19T06:52:42;99011.88;;;9.14;100.00
46876;BME280;32866;50.160;14.768;2023-02-19T06:55:08;99025.56;;;9.14;100.00
46876;BME280;32866;50.160;14.768;2023-02-19T06:57:33;99026.44;;;9.11;100.00
46876;BME280;32866;50.160;14.768;2023-02-19T06:59:58;99008.50;;;9.10;100.00
46876;BME280;32866;50.160;14.768;2023-02-19T07:02:24;99030.38;;;9.10;100.00
46876;BME280;32866;50.160;14.768;2023-02-19T07:04:50;99025.00;;;9.06;100.00
46876;BME280;32866;50.160;14.768;2023-02-19T07:07:15;99045.34;;;9.05;100.00
46876;BME280;32866;50.160;14.768;2023-02-19T07:09:41;99047.84;;;9.00;100.00
46876;BME280;32866;50.160;14.768;2023-02-19T07:12:06;99012.06;;;8.68;100.00
46876;BME280;32866;50.160;14.768;2023-02-19T07:14:31;99054.59;;;8.82;100.00
46876;BME280;32866;50.160;14.768;2023-02-19T07:16:57;99063.31;;;8.77;100.00
46876;BME280;32866;50.160;14.768;2023-02-19T07:19:22;99070.91;;;8.57;100.00
46876;BME280;32866;50.160;14.768;2023-02-19T07:21:47;99027.66;;;8.39;100.00
46876;BME280;32866;50.160;14.768;2023-02-19T07:24:13;99039.78;;;8.38;100.00
46876;BME280;32866;50.160;14.768;2023-02-19T07:26:38;99077.63;;;8.68;100.00
46876;BME280;32866;50.160;14.768;2023-02-19T07:29:04;99082.28;;;8.68;100.00
46876;BME280;32866;50.160;14.768;2023-02-19T07:31:29;99074.06;;;8.55;100.00
46876;BME280;32866;50.160;14.768;2023-02-19T07:33:55;99076.41;;;8.69;100.00
46876;BME280;32866;50.160;14.768;2023-02-19T07:36:22;99084.66;;;8.82;100.00
46876;BME280;32866;50.160;14.768;2023-02-19T07:38:59;99056.72;;;8.62;100.00
46876;BME280;32866;50.160;14.768;2023-02-19T07:41:25;99095.81;;;8.88;100.00
46876;BME280;32866;50.160;14.768;2023-02-19T07:43:52;99103.81;;;8.95;100.00
46876;BME280;32866;50.160;14.768;2023-02-19T07:46:18;99091.13;;;8.88;100.00
46876;BME280;32866;50.160;14.768;2023-02-19T07:48:43;99084.78;;;8.91;100.00
46876;BME280;32866;50.160;14.768;2023-02-19T07:51:11;99105.47;;;9.05;100.00
46876;BME280;32866;50.160;14.768;2023-02-19T07:53:37;99065.31;;;8.89;100.00
46876;BME280;32866;50.160;14.768;2023-02-19T07:56:04;99109.31;;;9.21;100.00
46876;BME280;32866;50.160;14.768;2023-02-19T07:58:30;99116.66;;;9.24;100.00
46876;BME280;32866;50.160;14.768;2023-02-19T08:00:56;99123.44;;;9.19;100.00
46876;BME280;32866;50.160;14.768;2023-02-19T08:03:22;99146.31;;;9.25;100.00
46876;BME280;32866;50.160;14.768;2023-02-19T08:05:48;99133.81;;;9.24;100.00
46876;BME280;32866;50.160;14.768;2023-02-19T08:08:18;99137.91;;;8.90;100.00
46876;BME280;32866;50.160;14.768;2023-02-19T08:10:43;99138.28;;;8.76;100.00
46876;BME280;32866;50.160;14.768;2023-02-19T08:13:28;99154.09;;;8.68;100.00
46876;BME280;32866;50.160;14.768;2023-02-19T08:18:26;99156.44;;;8.53;100.00
46876;BME280;32866;50.160;14.768;2023-02-19T08:20:53;99141.13;;;8.56;100.00
46876;BME280;32866;50.160;14.768;2023-02-19T08:23:19;99159.66;;;8.65;100.00
46876;BME280;32866;50.160;14.768;2023-02-19T08:25:49;99163.28;;;8.75;100.00
46876;BME280;32866;50.160;14.768;2023-02-19T08:28:15;99165.94;;;8.78;100.00
46876;BME280;32866;50.160;14.768;2023-02-19T08:30:44;99173.38;;;8.78;100.00
46876;BME280;32866;50.160;14.768;2023-02-19T08:33:12;99149.72;;;8.71;100.00
46876;BME280;32866;50.160;14.768;2023-02-19T08:35:37;99121.16;;;8.59;100.00
46876;BME280;32866;50.160;14.768;2023-02-19T08:38:04;99157.56;;;8.85;100.00
46876;BME280;32866;50.160;14.768;2023-02-19T08:40:31;99154.00;;;8.72;100.00
46876;BME280;32866;50.160;14.768;2023-02-19T08:43:04;99169.00;;;8.80;100.00
46876;BME280;32866;50.160;14.768;2023-02-19T08:45:32;99175.84;;;8.88;100.00
46876;BME280;32866;50.160;14.768;2023-02-19T08:47:59;99175.94;;;8.85;100.00
46876;BME280;32866;50.160;14.768;2023-02-19T08:50:37;99196.44;;;9.06;100.00
46876;BME280;32866;50.160;14.768;2023-02-19T08:53:10;99192.84;;;9.09;100.00
46876;BME280;32866;50.160;14.768;2023-02-19T08:55:36;99192.50;;;9.07;100.00
46876;BME280;32866;50.160;14.768;2023-02-19T08:58:02;99196.09;;;9.04;100.00
46876;BME280;32866;50.160;14.768;2023-02-19T09:00:27;99197.81;;;8.98;100.00
46876;BME280;32866;50.160;14.768;2023-02-19T09:02:52;99199.22;;;8.89;100.00
46876;BME280;32866;50.160;14.768;2023-02-19T09:05:18;99193.41;;;8.87;100.00
46876;BME280;32866;50.160;14.768;2023-02-19T09:07:43;99195.38;;;8.87;100.00
46876;BME280;32866;50.160;14.768;2023-02-19T09:10:11;99202.09;;;8.99;100.00
46876;BME280;32866;50.160;14.768;2023-02-19T09:12:37;99198.31;;;9.09;100.00
46876;BME280;32866;50.160;14.768;2023-02-19T09:15:04;99230.06;;;9.19;100.00
46876;BME280;32866;50.160;14.768;2023-02-19T09:17:30;99232.47;;;9.17;100.00
46876;BME280;32866;50.160;14.768;2023-02-19T09:19:55;99204.16;;;8.95;100.00
46876;BME280;32866;50.160;14.768;2023-02-19T09:22:21;99234.69;;;9.06;100.00
46876;BME280;32866;50.160;14.768;2023-02-19T09:24:46;99224.28;;;9.01;100.00
46876;BME280;32866;50.160;14.768;2023-02-19T09:27:16;99231.22;;;9.05;100.00
46876;BME280;32866;50.160;14.768;2023-02-19T09:29:42;99212.91;;;8.73;100.00
46876;BME280;32866;50.160;14.768;2023-02-19T09:32:08;99211.19;;;8.79;100.00
46876;BME280;32866;50.160;14.768;2023-02-19T09:34:41;99242.94;;;8.89;100.00
46876;BME280;32866;50.160;14.768;2023-02-19T09:37:08;99245.09;;;8.82;100.00
46876;BME280;32866;50.160;14.768;2023-02-19T09:39:34;99256.03;;;8.82;100.00
46876;BME280;32866;50.160;14.768;2023-02-19T09:44:31;99276.44;;;8.77;100.00
46876;BME280;32866;50.160;14.768;2023-02-19T09:46:57;99234.78;;;8.57;100.00
46876;BME280;32866;50.160;14.768;2023-02-19T09:49:39;99246.72;;;8.79;100.00
46876;BME280;32866;50.160;14.768;2023-02-19T09:52:30;99264.44;;;9.04;100.00
46876;BME280;32866;50.160;14.768;2023-02-19T09:55:00;99274.69;;;9.00;100.00
46876;BME280;32866;50.160;14.768;2023-02-19T09:57:29;99277.78;;;9.02;100.00
46876;BME280;32866;50.160;14.768;2023-02-19T10:00:06;99284.72;;;9.19;100.00
46876;BME280;32866;50.160;14.768;2023-02-19T10:02:39;99266.47;;;9.00;100.00
46876;BME280;32866;50.160;14.768;2023-02-19T10:05:12;99277.16;;;9.10;100.00
46876;BME280;32866;50.160;14.768;2023-02-19T10:07:41;99284.06;;;9.15;100.00
46876;BME280;32866;50.160;14.768;2023-02-19T10:12:46;99316.88;;;8.99;100.00
46876;BME280;32866;50.160;14.768;2023-02-19T10:15:30;99311.25;;;8.89;100.00
46876;BME280;32866;50.160;14.768;2023-02-19T10:17:56;99298.25;;;8.44;100.00
46876;BME280;32866;50.160;14.768;2023-02-19T10:20:23;99307.00;;;8.35;100.00
46876;BME280;32866;50.160;14.768;2023-02-19T10:22:58;99308.66;;;8.33;100.00
46876;BME280;32866;50.160;14.768;2023-02-19T10:25:24;99315.38;;;8.28;100.00
46876;BME280;32866;50.160;14.768;2023-02-19T10:27:49;99315.00;;;8.10;100.00
46876;BME280;32866;50.160;14.768;2023-02-19T10:30:27;99329.59;;;8.20;100.00
46876;BME280;32866;50.160;14.768;2023-02-19T10:35:24;99350.41;;;8.13;100.00
46876;BME280;32866;50.160;14.768;2023-02-19T10:37:50;99347.00;;;7.89;100.00
46876;BME280;32866;50.160;14.768;2023-02-19T10:40:21;99345.44;;;7.88;100.00
46876;BME280;32866;50.160;14.768;2023-02-19T10:42:49;99346.69;;;7.84;100.00
46876;BME280;32866;50.160;14.768;2023-02-19T10:45:23;99374.41;;;7.82;100.00
46876;BME280;32866;50.160;14.768;2023-02-19T10:47:50;99376.06;;;7.56;100.00
46876;BME280;32866;50.160;14.768;2023-02-19T10:50:27;99386.13;;;7.59;100.00
46876;BME280;32866;50.160;14.768;2023-02-19T10:55:32;99401.66;;;7.15;100.00
46876;BME280;32866;50.160;14.768;2023-02-19T10:58:24;99409.00;;;6.94;100.00
46876;BME280;32866;50.160;14.768;2023-02-19T11:01:20;99422.16;;;6.99;100.00
46876;BME280;32866;50.160;14.768;2023-02-19T11:03:48;99408.22;;;6.94;100.00
46876;BME280;32866;50.160;14.768;2023-02-19T11:06:15;99413.72;;;6.90;100.00
46876;BME280;32866;50.160;14.768;2023-02-19T11:11:09;99414.72;;;6.76;100.00
46876;BME280;32866;50.160;14.768;2023-02-19T11:13:44;99408.28;;;6.90;100.00
46876;BME280;32866;50.160;14.768;2023-02-19T11:16:10;99393.31;;;6.75;100.00
46876;BME280;32866;50.160;14.768;2023-02-19T11:18:35;99394.66;;;6.63;100.00
46876;BME280;32866;50.160;14.768;2023-02-19T11:21:04;99428.63;;;6.82;100.00
46876;BME280;32866;50.160;14.768;2023-02-19T11:23:35;99417.88;;;6.98;100.00
46876;BME280;32866;50.160;14.768;2023-02-19T11:26:12;99424.97;;;7.19;100.00
46876;BME280;32866;50.160;14.768;2023-02-19T11:28:40;99446.84;;;7.39;100.00
46876;BME280;32866;50.160;14.768;2023-02-19T11:31:23;99442.97;;;7.37;100.00
46876;BME280;32866;50.160;14.768;2023-02-19T11:33:51;99446.13;;;7.35;100.00
46876;BME280;32866;50.160;14.768;2023-02-19T11:38:51;99444.19;;;7.09;100.00
46876;BME280;32866;50.160;14.768;2023-02-19T11:55:50;99487.28;;;6.90;100.00
46876;BME280;32866;50.160;14.768;2023-02-19T12:01:57;99506.81;;;6.85;100.00
46876;BME280;32866;50.160;14.768;2023-02-19T12:10:27;99509.28;;;6.76;100.00
46876;BME280;32866;50.160;14.768;2023-02-19T12:13:04;99530.31;;;6.72;100.00
46876;BME280;32866;50.160;14.768;2023-02-19T12:26:20;99536.75;;;7.16;100.00
46876;BME280;32866;50.160;14.768;2023-02-19T12:34:47;99570.91;;;7.24;100.00
46876;BME280;32866;50.160;14.768;2023-02-19T12:37:40;99575.34;;;6.80;100.00
46876;BME280;32866;50.160;14.768;2023-02-19T12:40:29;99605.63;;;6.89;100.00
46876;BME280;32866;50.160;14.768;2023-02-19T12:43:16;99585.53;;;6.76;100.00
46876;BME280;32866;50.160;14.768;2023-02-19T12:48:34;99601.69;;;6.56;100.00
46876;BME280;32866;50.160;14.768;2023-02-19T12:51:32;99606.28;;;6.24;100.00
46876;BME280;32866;50.160;14.768;2023-02-19T12:56:46;99583.16;;;5.98;100.00
46876;BME280;32866;50.160;14.768;2023-02-19T13:02:17;99625.84;;;6.08;100.00
46876;BME280;32866;50.160;14.768;2023-02-19T13:10:55;99629.50;;;5.84;100.00
46876;BME280;32866;50.160;14.768;2023-02-19T13:13:40;99641.50;;;5.90;100.00
46876;BME280;32866;50.160;14.768;2023-02-19T13:16:13;99646.50;;;6.02;100.00
46876;BME280;32866;50.160;14.768;2023-02-19T13:18:44;99634.84;;;6.02;100.00
46876;BME280;32866;50.160;14.768;2023-02-19T13:21:11;99625.56;;;5.92;100.00
46876;BME280;32866;50.160;14.768;2023-02-19T13:23:59;99629.00;;;6.00;100.00
46876;BME280;32866;50.160;14.768;2023-02-19T13:33:36;99645.25;;;6.14;100.00
46876;BME280;32866;50.160;14.768;2023-02-19T13:36:08;99670.34;;;6.32;100.00
46876;BME280;32866;50.160;14.768;2023-02-19T13:38:43;99680.75;;;6.45;100.00
46876;BME280;32866;50.160;14.768;2023-02-19T13:41:27;99695.88;;;6.49;100.00
46876;BME280;32866;50.160;14.768;2023-02-19T13:44:02;99689.25;;;6.50;100.00
46876;BME280;32866;50.160;14.768;2023-02-19T13:46:37;99688.25;;;6.34;100.00
46876;BME280;32866;50.160;14.768;2023-02-19T13:52:00;99685.28;;;5.39;100.00
46876;BME280;32866;50.160;14.768;2023-02-19T13:54:30;99686.91;;;5.30;100.00
46876;BME280;32866;50.160;14.768;2023-02-19T13:59:49;99717.50;;;5.41;100.00
46876;BME280;32866;50.160;14.768;2023-02-19T14:07:33;99730.69;;;5.50;100.00
46876;BME280;32866;50.160;14.768;2023-02-19T14:09:59;99734.94;;;5.58;100.00
46876;BME280;32866;50.160;14.768;2023-02-19T14:12:34;99728.94;;;5.85;100.00
46876;BME280;32866;50.160;14.768;2023-02-19T14:15:38;99744.97;;;5.72;100.00
46876;BME280;32866;50.160;14.768;2023-02-19T14:18:41;99743.44;;;5.64;100.00
46876;BME280;32866;50.160;14.768;2023-02-19T14:21:22;99744.28;;;5.46;100.00
46876;BME280;32866;50.160;14.768;2023-02-19T14:23:52;99755.84;;;5.72;100.00
46876;BME280;32866;50.160;14.768;2023-02-19T14:26:20;99742.66;;;5.67;100.00
46876;BME280;32866;50.160;14.768;2023-02-19T14:28:47;99736.53;;;5.48;100.00
46876;BME280;32866;50.160;14.768;2023-02-19T14:31:31;99758.88;;;5.81;100.00
46876;BME280;32866;50.160;14.768;2023-02-19T14:34:24;99741.06;;;5.76;100.00
46876;BME280;32866;50.160;14.768;2023-02-19T14:36:57;99751.84;;;5.91;100.00
46876;BME280;32866;50.160;14.768;2023-02-19T14:39:29;99763.53;;;5.84;100.00
46876;BME280;32866;50.160;14.768;2023-02-19T14:41:58;99762.53;;;5.46;100.00
46876;BME280;32866;50.160;14.768;2023-02-19T14:44:36;99744.34;;;5.32;100.00
46876;BME280;32866;50.160;14.768;2023-02-19T14:47:07;99769.97;;;5.24;100.00
46876;BME280;32866;50.160;14.768;2023-02-19T14:49:51;99754.91;;;4.94;100.00
46876;BME280;32866;50.160;14.768;2023-02-19T14:52:22;99750.66;;;4.75;100.00
46876;BME280;32866;50.160;14.768;2023-02-19T14:54:54;99778.56;;;4.97;100.00
46876;BME280;32866;50.160;14.768;2023-02-19T14:57:27;99773.13;;;4.97;100.00
46876;BME280;32866;50.160;14.768;2023-02-19T14:59:55;99779.34;;;4.94;100.00
46876;BME280;32866;50.160;14.768;2023-02-19T15:02:23;99800.31;;;4.90;100.00
46876;BME280;32866;50.160;14.768;2023-02-19T15:04:50;99792.53;;;4.92;100.00
46876;BME280;32866;50.160;14.768;2023-02-19T15:07:20;99797.94;;;5.02;100.00
46876;BME280;32866;50.160;14.768;2023-02-19T15:09:49;99791.72;;;5.09;100.00
46876;BME280;32866;50.160;14.768;2023-02-19T15:12:20;99807.25;;;5.23;100.00
46876;BME280;32866;50.160;14.768;2023-02-19T15:14:48;99793.28;;;5.14;100.00
46876;BME280;32866;50.160;14.768;2023-02-19T15:17:24;99814.22;;;5.38;100.00
46876;BME280;32866;50.160;14.768;2023-02-19T15:19:50;99797.13;;;5.31;100.00